createdAt,value
2022-10-04T00:02:07.600Z,2.60
2022-10-04T00:04:44.917Z,2.20
2022-10-04T00:07:18.824Z,3.23
2022-10-04T00:09:48.749Z,2.30
2022-10-04T00:12:20.816Z,2.20
2022-10-04T00:14:48.839Z,2.77
2022-10-04T00:17:21.922Z,2.80
2022-10-04T00:19:52.691Z,2.60
2022-10-04T00:22:22.507Z,2.27
2022-10-04T00:25:28.785Z,2.80
2022-10-04T00:28:32.091Z,3.07
2022-10-04T00:31:20.856Z,3.30
2022-10-04T00:33:51.038Z,2.90
2022-10-04T00:36:50.778Z,2.73
2022-10-04T00:39:39.103Z,3.60
2022-10-04T00:42:32.399Z,2.53
2022-10-04T00:45:02.283Z,2.70
2022-10-04T00:47:32.759Z,3.50
2022-10-04T00:50:06.872Z,2.57
2022-10-04T00:52:37.941Z,3.07
2022-10-04T00:55:07.878Z,2.53
2022-10-04T00:57:40.417Z,2.50
2022-10-04T01:00:10.072Z,3.17
2022-10-04T01:02:40.534Z,2.90
2022-10-04T01:05:10.659Z,2.80
2022-10-04T01:07:43.481Z,2.73
2022-10-04T01:10:13.333Z,2.60
2022-10-04T01:12:45.463Z,3.00
2022-10-04T01:15:17.740Z,2.77
2022-10-04T01:18:10.009Z,2.70
2022-10-04T01:20:39.652Z,3.50
2022-10-04T01:23:10.562Z,2.50
2022-10-04T01:25:47.048Z,2.40
2022-10-04T01:28:15.288Z,3.27
2022-10-04T01:30:43.388Z,3.23
2022-10-04T01:33:12.144Z,3.73
2022-10-04T01:35:40.067Z,3.93
2022-10-04T01:38:09.213Z,4.03
2022-10-04T01:40:40.040Z,4.00
2022-10-04T01:43:10.364Z,4.87
2022-10-04T01:45:40.747Z,3.53
2022-10-04T01:48:12.400Z,4.43
2022-10-04T01:50:42.605Z,3.63
2022-10-04T01:53:16.521Z,4.47
2022-10-04T01:55:45.926Z,4.10
2022-10-04T01:58:16.196Z,4.13
2022-10-04T02:00:48.667Z,4.07
2022-10-04T02:03:19.082Z,4.07
2022-10-04T02:05:51.989Z,3.50
2022-10-04T02:08:25.339Z,4.40
2022-10-04T02:10:54.458Z,4.03
2022-10-04T02:13:23.038Z,4.77
2022-10-04T02:15:51.010Z,4.47
2022-10-04T02:18:20.569Z,5.37
2022-10-04T02:20:49.529Z,6.10
2022-10-04T02:23:18.357Z,5.10
2022-10-04T02:25:47.571Z,3.63
2022-10-04T02:28:18.637Z,5.50
2022-10-04T02:31:09.578Z,5.87
2022-10-04T02:33:40.564Z,5.57
2022-10-04T02:36:09.899Z,5.70
2022-10-04T02:38:41.858Z,5.00
2022-10-04T02:41:17.524Z,5.73
2022-10-04T02:43:50.421Z,4.30
2022-10-04T02:46:22.048Z,3.53
2022-10-04T02:48:53.253Z,3.80
2022-10-04T02:51:22.583Z,4.57
2022-10-04T02:54:08.534Z,4.57
2022-10-04T02:56:38.127Z,3.50
2022-10-04T02:59:06.904Z,3.53
2022-10-04T03:01:44.705Z,3.37
2022-10-04T03:04:15.043Z,5.00
2022-10-04T03:06:43.951Z,5.30
2022-10-04T03:09:11.641Z,3.60
2022-10-04T03:11:41.468Z,3.50
2022-10-04T03:14:14.715Z,4.60
2022-10-04T03:16:46.395Z,4.27
2022-10-04T03:19:15.569Z,4.30
2022-10-04T03:21:44.986Z,4.53
2022-10-04T03:24:17.057Z,3.07
2022-10-04T03:26:48.136Z,3.70
2022-10-04T03:29:17.891Z,3.00
2022-10-04T03:31:47.485Z,3.77
2022-10-04T03:34:16.517Z,3.43
2022-10-04T03:36:44.848Z,3.40
2022-10-04T03:39:13.049Z,3.70
2022-10-04T03:41:41.438Z,3.37
2022-10-04T03:44:23.937Z,4.17
2022-10-04T03:46:51.647Z,3.30
2022-10-04T03:49:27.220Z,4.40
2022-10-04T03:51:55.052Z,3.50
2022-10-04T03:54:24.990Z,3.70
2022-10-04T03:56:54.232Z,4.27
2022-10-04T03:59:26.027Z,3.60
2022-10-04T04:02:03.936Z,4.63
2022-10-04T04:04:38.240Z,5.40
2022-10-04T04:07:08.139Z,4.50
2022-10-04T04:09:40.484Z,4.80
2022-10-04T04:12:12.252Z,4.10
2022-10-04T04:14:42.394Z,4.33
2022-10-04T04:17:20.539Z,3.80
2022-10-04T04:19:48.250Z,4.80
2022-10-04T04:22:16.769Z,4.37
2022-10-04T04:24:45.282Z,5.00
2022-10-04T04:27:14.431Z,4.60
2022-10-04T04:29:47.290Z,4.40
2022-10-04T04:32:19.177Z,5.10
2022-10-04T04:34:52.914Z,3.83
2022-10-04T04:37:20.988Z,4.30
2022-10-04T04:39:54.651Z,4.80
2022-10-04T04:42:27.509Z,5.33
2022-10-04T04:45:00.111Z,4.63
2022-10-04T04:47:30.339Z,6.07
2022-10-04T04:50:00.053Z,4.80
2022-10-04T04:52:29.441Z,5.23
2022-10-04T04:54:57.454Z,5.83
2022-10-04T04:57:25.189Z,7.00
2022-10-04T04:59:58.402Z,5.40
2022-10-04T05:02:35.073Z,5.30
2022-10-04T05:05:20.165Z,4.57
2022-10-04T05:07:48.137Z,4.87
2022-10-04T05:10:32.797Z,4.63
2022-10-04T05:13:02.007Z,4.77
2022-10-04T05:15:34.869Z,4.77
2022-10-04T05:18:02.879Z,4.10
2022-10-04T05:20:34.274Z,4.40
2022-10-04T05:23:02.138Z,3.90
2022-10-04T05:25:33.257Z,4.77
2022-10-04T05:28:01.340Z,5.40
2022-10-04T05:30:43.063Z,5.53
2022-10-04T05:33:12.594Z,5.20
2022-10-04T05:35:45.803Z,5.23
2022-10-04T05:38:20.744Z,5.67
2022-10-04T05:40:51.229Z,5.30
2022-10-04T05:43:24.483Z,5.77
2022-10-04T05:48:46.477Z,5.73
2022-10-04T05:51:18.620Z,6.80
2022-10-04T05:53:46.504Z,5.77
2022-10-04T05:56:26.083Z,6.23
2022-10-04T05:59:02.319Z,7.00
2022-10-04T06:01:38.653Z,5.70
2022-10-04T06:04:21.301Z,6.50
2022-10-04T06:06:52.399Z,6.40
2022-10-04T06:09:33.647Z,6.33
2022-10-04T06:12:07.815Z,6.77
2022-10-04T06:14:59.114Z,6.13
2022-10-04T06:17:40.132Z,6.10
2022-10-04T06:20:31.070Z,6.83
2022-10-04T06:23:00.694Z,7.10
2022-10-04T06:25:30.397Z,7.97
2022-10-04T06:28:05.406Z,6.53
2022-10-04T06:30:52.276Z,6.70
2022-10-04T06:33:31.706Z,6.77
2022-10-04T06:36:24.875Z,8.50
2022-10-04T06:39:08.712Z,8.50
2022-10-04T06:41:46.725Z,9.43
2022-10-04T06:44:28.591Z,8.00
2022-10-04T06:47:02.218Z,7.13
2022-10-04T06:49:34.787Z,6.40
2022-10-04T06:52:17.641Z,7.53
2022-10-04T06:55:01.920Z,7.13
2022-10-04T06:57:58.958Z,7.57
2022-10-04T07:00:27.574Z,8.00
2022-10-04T07:02:59.794Z,9.30
2022-10-04T07:05:32.574Z,8.57
2022-10-04T07:08:11.124Z,9.23
2022-10-04T07:10:47.121Z,9.00
2022-10-04T07:13:22.247Z,8.00
2022-10-04T07:15:55.511Z,8.10
2022-10-04T07:18:26.908Z,9.80
2022-10-04T07:21:01.236Z,9.30
2022-10-04T07:23:33.555Z,8.90
2022-10-04T07:26:03.847Z,10.00
2022-10-04T07:28:51.600Z,8.73
2022-10-04T07:31:26.096Z,8.80
2022-10-04T07:33:56.114Z,8.50
2022-10-04T07:36:25.955Z,11.00
2022-10-04T07:39:00.275Z,9.23
2022-10-04T07:41:30.089Z,8.20
2022-10-04T07:44:01.504Z,8.93
2022-10-04T07:46:47.492Z,8.47
2022-10-04T07:49:16.669Z,8.80
2022-10-04T07:52:01.942Z,6.63
2022-10-04T07:54:38.254Z,9.00
2022-10-04T07:57:13.156Z,7.13
2022-10-04T07:59:46.475Z,8.97
2022-10-04T08:02:24.020Z,7.50
2022-10-04T08:05:01.644Z,7.10
2022-10-04T08:07:41.039Z,7.50
2022-10-04T08:10:15.879Z,7.50
2022-10-04T08:12:49.392Z,8.17
2022-10-04T08:15:30.884Z,7.90
2022-10-04T08:18:02.626Z,8.80
2022-10-04T08:20:36.730Z,8.97
2022-10-04T08:23:17.657Z,8.30
2022-10-04T08:25:53.916Z,8.60
2022-10-04T08:28:48.270Z,9.90
2022-10-04T08:31:27.383Z,8.50
2022-10-04T08:34:02.768Z,9.20
2022-10-04T08:36:42.334Z,8.03
2022-10-04T08:39:22.167Z,8.60
2022-10-04T08:42:18.299Z,8.03
2022-10-04T08:45:12.951Z,8.73
2022-10-04T08:48:15.059Z,8.87
2022-10-04T08:50:56.623Z,7.03
2022-10-04T08:53:48.554Z,7.80
2022-10-04T08:56:22.462Z,8.67
2022-10-04T08:59:34.435Z,9.03
2022-10-04T09:02:17.175Z,8.40
2022-10-04T09:05:15.564Z,8.33
2022-10-04T09:07:56.008Z,8.47
2022-10-04T09:10:36.829Z,7.70
2022-10-04T09:13:24.888Z,8.63
2022-10-04T09:15:56.655Z,8.30
2022-10-04T09:18:39.645Z,7.80
2022-10-04T09:21:11.522Z,8.77
2022-10-04T09:24:18.519Z,8.53
2022-10-04T09:26:47.370Z,8.60
2022-10-04T09:29:36.005Z,7.80
2022-10-04T09:32:49.094Z,8.17
2022-10-04T09:35:32.098Z,7.57
2022-10-04T09:38:13.017Z,6.90
2022-10-04T09:41:27.103Z,7.13
2022-10-04T09:44:29.935Z,6.60
2022-10-04T09:47:19.327Z,7.20
2022-10-04T09:50:25.502Z,6.13
2022-10-04T09:52:59.210Z,5.43
2022-10-04T09:55:37.823Z,5.60
2022-10-04T09:58:25.254Z,6.37
2022-10-04T10:00:59.913Z,6.73
2022-10-04T10:03:55.202Z,6.73
2022-10-04T10:06:37.434Z,6.50
2022-10-04T10:09:18.396Z,6.60
2022-10-04T10:12:09.769Z,7.20
2022-10-04T10:14:56.886Z,7.00
2022-10-04T10:17:36.458Z,6.80
2022-10-04T10:20:36.908Z,7.80
2022-10-04T10:23:22.821Z,6.67
2022-10-04T10:26:24.955Z,7.70
2022-10-04T10:29:04.208Z,7.27
2022-10-04T10:31:54.173Z,7.10
2022-10-04T10:34:46.003Z,6.70
2022-10-04T10:37:18.873Z,8.17
2022-10-04T10:40:17.844Z,7.00
2022-10-04T10:42:57.945Z,6.33
2022-10-04T10:45:45.679Z,6.70
2022-10-04T10:48:17.938Z,7.27
2022-10-04T10:51:01.277Z,7.37
2022-10-04T10:54:05.338Z,6.40
2022-10-04T10:56:45.766Z,7.70
2022-10-04T10:59:40.309Z,10.23
2022-10-04T11:02:48.675Z,7.23
2022-10-04T11:05:36.701Z,9.03
2022-10-04T11:08:11.619Z,7.57
2022-10-04T11:11:03.785Z,8.20
2022-10-04T11:13:54.169Z,8.30
2022-10-04T11:16:36.698Z,7.80
2022-10-04T11:19:37.877Z,8.30
2022-10-04T11:22:50.879Z,6.90
2022-10-04T11:25:57.102Z,7.40
2022-10-04T11:28:32.711Z,6.87
2022-10-04T11:31:40.462Z,7.27
2022-10-04T11:34:25.715Z,6.20
2022-10-04T11:37:03.187Z,5.70
2022-10-04T11:39:50.307Z,5.57
2022-10-04T11:42:26.198Z,5.90
2022-10-04T11:45:15.290Z,5.27
2022-10-04T11:47:56.394Z,4.83
2022-10-04T11:50:39.993Z,5.67
2022-10-04T11:53:40.198Z,5.27
2022-10-04T11:56:34.093Z,5.17
2022-10-04T11:59:11.969Z,4.43
2022-10-04T12:02:16.902Z,3.50
2022-10-04T12:04:55.795Z,3.57
2022-10-04T12:07:28.989Z,3.50
2022-10-04T12:10:05.745Z,3.40
2022-10-04T12:12:50.665Z,5.07
2022-10-04T12:15:39.521Z,4.00
2022-10-04T12:18:26.695Z,3.33
2022-10-04T12:21:10.379Z,3.40
2022-10-04T12:24:04.484Z,2.97
2022-10-04T12:27:05.351Z,5.00
2022-10-04T12:30:03.732Z,4.47
2022-10-04T12:32:35.566Z,3.40
2022-10-04T12:35:13.718Z,3.90
2022-10-04T12:37:50.765Z,3.60
2022-10-04T12:40:25.675Z,3.07
2022-10-04T12:42:58.227Z,2.93
2022-10-04T12:45:48.095Z,2.53
2022-10-04T12:48:23.937Z,3.00
2022-10-04T12:51:00.274Z,3.83
2022-10-04T12:53:37.341Z,3.23
2022-10-04T12:56:09.111Z,4.30
2022-10-04T12:58:51.250Z,3.77
2022-10-04T13:01:26.709Z,5.00
2022-10-04T13:04:15.638Z,3.40
2022-10-04T13:06:55.820Z,3.30
2022-10-04T13:09:35.127Z,3.30
2022-10-04T13:12:16.592Z,4.67
2022-10-04T13:15:00.781Z,4.03
2022-10-04T13:17:36.572Z,3.23
2022-10-04T13:20:21.222Z,3.40
2022-10-04T13:22:57.127Z,3.93
2022-10-04T13:25:38.050Z,3.50
2022-10-04T13:28:09.542Z,3.50
2022-10-04T13:30:44.585Z,3.10
2022-10-04T13:33:23.758Z,3.70
2022-10-04T13:35:56.694Z,3.77
2022-10-04T13:38:44.937Z,3.87
2022-10-04T13:41:21.418Z,3.83
2022-10-04T13:44:07.944Z,3.87
2022-10-04T13:46:44.056Z,3.80
2022-10-04T13:49:28.355Z,3.37
2022-10-04T13:52:37.877Z,4.80
2022-10-04T13:55:38.347Z,3.00
2022-10-04T13:58:17.047Z,3.77
2022-10-04T14:01:00.759Z,3.20
2022-10-04T14:03:42.463Z,3.40
2022-10-04T14:06:37.124Z,3.40
2022-10-04T14:09:20.817Z,2.67
2022-10-04T14:12:25.814Z,3.00
2022-10-04T14:15:29.461Z,3.20
2022-10-04T14:18:29.659Z,4.10
2022-10-04T14:21:24.151Z,3.37
2022-10-04T14:24:08.206Z,3.20
2022-10-04T14:26:49.375Z,3.57
2022-10-04T14:29:35.837Z,3.37
2022-10-04T14:32:34.747Z,2.77
2022-10-04T14:35:05.024Z,3.90
2022-10-04T14:38:04.934Z,3.33
2022-10-04T14:40:46.594Z,3.23
2022-10-04T14:43:36.019Z,2.43
2022-10-04T14:46:13.407Z,3.03
2022-10-04T14:49:04.006Z,2.70
2022-10-04T14:51:40.920Z,3.00
2022-10-04T14:54:12.179Z,2.60
2022-10-04T14:56:49.963Z,2.73
2022-10-04T14:59:32.872Z,3.00
2022-10-04T15:02:22.135Z,2.33
2022-10-04T15:05:20.199Z,2.43
2022-10-04T15:07:50.603Z,2.07
2022-10-04T15:10:22.213Z,2.37
2022-10-04T15:13:11.540Z,2.10
2022-10-04T15:15:56.068Z,3.20
2022-10-04T15:18:31.490Z,2.23
2022-10-04T15:21:03.256Z,2.73
2022-10-04T15:23:37.723Z,2.60
2022-10-04T15:26:13.793Z,3.53
2022-10-04T15:29:00.033Z,3.00
2022-10-04T15:31:31.614Z,2.73
2022-10-04T15:34:04.418Z,2.90
2022-10-04T15:36:53.003Z,3.13
2022-10-04T15:39:39.271Z,3.23
2022-10-04T15:42:11.377Z,2.70
2022-10-04T15:45:02.417Z,3.33
2022-10-04T15:47:35.410Z,2.77
2022-10-04T15:50:21.304Z,3.00
2022-10-04T15:53:07.993Z,2.50
2022-10-04T15:56:02.998Z,2.83
2022-10-04T15:59:07.577Z,3.00
2022-10-04T16:01:49.359Z,2.93
2022-10-04T16:04:25.265Z,2.83
2022-10-04T16:06:56.235Z,3.23
2022-10-04T16:09:31.175Z,2.57
2022-10-04T16:12:08.574Z,3.17
2022-10-04T16:14:48.609Z,2.70
2022-10-04T16:17:32.973Z,3.40
2022-10-04T16:20:34.223Z,3.13
2022-10-04T16:23:24.968Z,3.07
2022-10-04T16:25:55.073Z,2.67
2022-10-04T16:28:31.450Z,3.33
2022-10-04T16:31:20.303Z,2.70
2022-10-04T16:33:56.485Z,3.17
2022-10-04T16:36:27.886Z,3.23
2022-10-04T16:39:14.936Z,3.07
2022-10-04T16:41:47.113Z,3.80
2022-10-04T16:44:32.181Z,2.90
2022-10-04T16:47:02.026Z,3.57
2022-10-04T16:49:37.639Z,5.97
2022-10-04T16:52:27.747Z,4.60
2022-10-04T16:55:04.782Z,3.77
2022-10-04T16:57:33.663Z,3.93
2022-10-04T17:00:06.077Z,3.63
2022-10-04T17:03:05.097Z,3.77
2022-10-04T17:05:47.329Z,3.80
2022-10-04T17:08:25.074Z,3.67
2022-10-04T17:11:16.061Z,3.50
2022-10-04T17:13:56.854Z,4.13
2022-10-04T17:16:30.714Z,4.07
2022-10-04T17:19:15.957Z,3.50
2022-10-04T17:21:50.752Z,4.13
2022-10-04T17:24:24.100Z,4.23
2022-10-04T17:27:09.787Z,4.70
2022-10-04T17:29:48.671Z,4.20
2022-10-04T17:32:25.865Z,4.63
2022-10-04T17:35:02.984Z,4.53
2022-10-04T17:37:39.395Z,3.77
2022-10-04T17:40:30.487Z,4.40
2022-10-04T17:43:01.761Z,3.83
2022-10-04T17:45:56.305Z,4.60
2022-10-04T17:48:43.979Z,4.40
2022-10-04T17:51:35.088Z,4.70
2022-10-04T17:54:23.091Z,4.60
2022-10-04T17:56:54.798Z,4.30
2022-10-04T17:59:30.872Z,4.70
2022-10-04T18:02:05.280Z,5.40
2022-10-04T18:04:35.916Z,5.30
2022-10-04T18:07:12.066Z,5.50
2022-10-04T18:09:43.564Z,4.77
2022-10-04T18:12:14.335Z,5.37
2022-10-04T18:14:53.427Z,5.17
2022-10-04T18:17:30.581Z,6.83
2022-10-04T18:20:09.268Z,5.50
2022-10-04T18:22:44.006Z,6.23
2022-10-04T18:25:15.189Z,5.33
2022-10-04T18:27:52.132Z,5.60
2022-10-04T18:30:21.353Z,5.97
2022-10-04T18:32:52.715Z,6.40
2022-10-04T18:35:26.630Z,5.90
2022-10-04T18:37:55.894Z,6.07
2022-10-04T18:40:25.899Z,5.97
2022-10-04T18:42:55.637Z,5.93
2022-10-04T18:45:26.573Z,5.53
2022-10-04T18:47:56.880Z,5.80
2022-10-04T18:50:36.114Z,6.40
2022-10-04T18:53:21.848Z,6.23
2022-10-04T18:55:57.375Z,6.23
2022-10-04T18:58:56.338Z,5.90
2022-10-04T19:01:52.571Z,6.90
2022-10-04T19:04:26.882Z,6.77
2022-10-04T19:06:59.389Z,7.40
2022-10-04T19:09:31.817Z,7.50
2022-10-04T19:12:04.317Z,6.63
2022-10-04T19:14:37.203Z,7.27
2022-10-04T19:17:10.565Z,7.50
2022-10-04T19:19:47.430Z,8.03
2022-10-04T19:22:28.972Z,7.83
2022-10-04T19:25:17.300Z,6.50
2022-10-04T19:27:50.566Z,6.90
2022-10-04T19:30:21.312Z,6.80
2022-10-04T19:33:00.705Z,6.67
2022-10-04T19:35:54.083Z,6.67
2022-10-04T19:38:43.745Z,7.27
2022-10-04T19:41:18.937Z,13.27
2022-10-04T19:43:53.509Z,7.60
2022-10-04T19:46:34.995Z,7.43
2022-10-04T19:49:03.141Z,6.13
2022-10-04T19:51:36.265Z,6.50
2022-10-04T19:54:15.289Z,6.70
2022-10-04T19:56:47.064Z,6.43
2022-10-04T19:59:18.609Z,6.50
2022-10-04T20:01:46.519Z,6.63
2022-10-04T20:04:33.651Z,7.80
2022-10-04T20:07:04.674Z,7.40
2022-10-04T20:09:35.420Z,7.50
2022-10-04T20:12:03.876Z,7.63
2022-10-04T20:14:47.012Z,6.97
2022-10-04T20:17:33.051Z,7.30
2022-10-04T20:20:01.412Z,7.20
2022-10-04T20:22:32.051Z,7.57
2022-10-04T20:24:59.937Z,8.80
2022-10-04T20:28:02.001Z,8.67
2022-10-04T20:30:52.214Z,8.00
2022-10-04T20:33:45.102Z,8.70
2022-10-04T20:36:15.432Z,8.00
2022-10-04T20:38:53.452Z,8.60
2022-10-04T20:42:01.629Z,7.90
2022-10-04T20:44:48.242Z,9.10
2022-10-04T20:47:24.325Z,7.20
2022-10-04T20:49:52.242Z,8.57
2022-10-04T20:52:21.423Z,7.40
2022-10-04T20:54:53.825Z,9.20
2022-10-04T20:57:23.728Z,8.83
2022-10-04T20:59:55.368Z,7.70
2022-10-04T21:02:24.474Z,8.40
2022-10-04T21:04:53.617Z,9.00
2022-10-04T21:07:23.017Z,8.67
2022-10-04T21:09:53.129Z,9.23
2022-10-04T21:12:31.051Z,8.60
2022-10-04T21:15:20.147Z,7.60
2022-10-04T21:18:00.785Z,7.23
2022-10-04T21:20:43.646Z,8.20
2022-10-04T21:23:17.909Z,8.43
2022-10-04T21:25:45.530Z,8.23
2022-10-04T21:28:33.834Z,8.23
2022-10-04T21:31:02.698Z,8.10
2022-10-04T21:33:32.578Z,8.90
2022-10-04T21:36:00.385Z,9.00
2022-10-04T21:38:28.524Z,8.57
2022-10-04T21:40:56.650Z,8.10
2022-10-04T21:43:25.048Z,8.13
2022-10-04T21:45:54.094Z,7.10
2022-10-04T21:48:23.219Z,7.90
2022-10-04T21:50:52.043Z,8.23
2022-10-04T21:53:19.962Z,7.67
2022-10-04T21:55:47.668Z,8.40
2022-10-04T21:58:15.248Z,7.50
2022-10-04T22:00:42.833Z,8.50
2022-10-04T22:03:11.771Z,7.33
2022-10-04T22:05:39.308Z,8.10
2022-10-04T22:08:06.936Z,8.07
2022-10-04T22:10:34.446Z,7.40
2022-10-04T22:13:01.995Z,8.30
2022-10-04T22:15:29.900Z,7.20
2022-10-04T22:17:58.021Z,7.17
2022-10-04T22:20:27.313Z,7.10
2022-10-04T22:22:55.627Z,6.47
2022-10-04T22:25:24.718Z,6.60
2022-10-04T22:27:53.290Z,6.00
2022-10-04T22:30:26.003Z,6.40
2022-10-04T22:32:56.366Z,5.77
2022-10-04T22:35:24.015Z,7.57
2022-10-04T22:37:53.000Z,5.83
2022-10-04T22:40:22.236Z,5.73
2022-10-04T22:42:53.683Z,5.27
2022-10-04T22:45:23.881Z,5.63
2022-10-04T22:47:52.972Z,6.00
2022-10-04T22:50:28.826Z,5.20
2022-10-04T22:52:58.125Z,6.27
2022-10-04T22:55:25.801Z,5.47
2022-10-04T22:57:53.496Z,5.57
2022-10-04T23:00:21.108Z,5.47
2022-10-04T23:02:48.853Z,5.40
2022-10-04T23:05:17.694Z,5.90
2022-10-04T23:07:46.417Z,5.00
2022-10-04T23:10:17.511Z,5.43
2022-10-04T23:12:46.391Z,5.13
2022-10-04T23:15:16.793Z,5.77
2022-10-04T23:17:44.350Z,5.50
2022-10-04T23:20:14.451Z,5.00
2022-10-04T23:22:44.723Z,5.83
2022-10-04T23:25:21.103Z,6.27
2022-10-04T23:27:49.309Z,6.00
2022-10-04T23:30:19.082Z,5.67
2022-10-04T23:32:48.863Z,5.73
2022-10-04T23:35:19.983Z,5.53
2022-10-04T23:37:47.967Z,5.80
2022-10-04T23:40:19.733Z,6.10
2022-10-04T23:42:48.012Z,5.43
2022-10-04T23:45:19.070Z,5.73
2022-10-04T23:47:48.268Z,5.10
2022-10-04T23:50:22.815Z,6.30
2022-10-04T23:52:51.847Z,5.70
2022-10-04T23:55:22.971Z,5.83
2022-10-04T23:57:51.160Z,6.40
